Time;durP1;ratioP1;P1;durP2;ratioP2;P2;SDS_P1;SDS_P2;PMS_P1;PMS_P2;Temp;Humidity;BMP_temperature;BMP_pressure;BME280_temperature;BME280_humidity;BME280_pressure;Samples;Min_cycle;Max_cycle;Signal;HPM_P1;HPM_P2
2022/08/05 00:01:41;;;;;;;;;;;;;;;24.35;41.03;96106.78;5048855;28;19976;-72
2022/08/05 00:04:07;;;;;;;;;;;;;;;24.29;41.43;96106.16;5035578;28;19957;-72
2022/08/05 00:06:33;;;;;;;;;;;;;;;24.24;41.75;96114.34;5034687;28;19961;-72
2022/08/05 00:08:59;;;;;;;;;;;;;;;24.19;41.40;96114.53;5047064;28;20435;-72
2022/08/05 00:11:26;;;;;;;;;;;;;;;24.14;41.30;96114.66;5040927;28;20321;-72
2022/08/05 00:13:52;;;;;;;;;;;;;;;24.09;41.40;96120.16;5054073;28;19958;-72
2022/08/05 00:16:18;;;;;;;;;;;;;;;24.04;41.41;96121.13;5041745;28;20013;-72
2022/08/05 00:18:46;;;;;;;;;;;;;;;24.00;41.34;96116.66;5044932;28;19958;-72
2022/08/05 00:21:12;;;;;;;;;;;;;;;23.95;41.47;96119.50;5038996;28;19977;-72
2022/08/05 00:23:39;;;;;;;;;;;;;;;23.90;41.76;96128.47;5058046;28;20337;-72
2022/08/05 00:26:05;;;;;;;;;;;;;;;23.84;41.64;96127.06;5043646;28;19963;-72
2022/08/05 00:28:31;;;;;;;;;;;;;;;23.79;41.90;96121.81;5060987;28;20069;-72
2022/08/05 00:30:57;;;;;;;;;;;;;;;23.75;41.89;96134.22;5042104;28;19951;-72
2022/08/05 00:33:23;;;;;;;;;;;;;;;23.68;41.83;96134.66;5044232;28;19958;-72
2022/08/05 00:35:49;;;;;;;;;;;;;;;23.63;41.93;96138.28;5041797;28;19971;-72
2022/08/05 00:38:15;;;;;;;;;;;;;;;23.59;41.91;96134.66;5050119;28;20420;-72
2022/08/05 00:40:45;;;;;;;;;;;;;;;23.54;41.69;96133.97;5038380;28;20406;-72
2022/08/05 00:43:11;;;;;;;;;;;;;;;23.45;41.78;96132.06;5044660;28;20323;-72
2022/08/05 00:45:37;;;;;;;;;;;;;;;23.39;41.91;96127.97;5041298;28;20050;-72
2022/08/05 00:48:02;;;;;;;;;;;;;;;23.35;42.17;96128.84;5049292;28;20013;-72
2022/08/05 00:50:28;;;;;;;;;;;;;;;23.29;41.99;96128.22;5037331;28;20077;-72
2022/08/05 00:52:54;;;;;;;;;;;;;;;23.25;42.52;96129.94;5043902;28;20046;-72
2022/08/05 00:55:20;;;;;;;;;;;;;;;23.20;42.65;96135.41;5040172;28;19966;-72
2022/08/05 00:57:46;;;;;;;;;;;;;;;23.16;42.96;96132.56;5049910;28;19965;-72
2022/08/05 01:00:12;;;;;;;;;;;;;;;23.11;42.90;96130.00;5038314;28;19964;-72
2022/08/05 01:02:38;;;;;;;;;;;;;;;23.06;43.26;96127.47;5040447;28;20411;-72
2022/08/05 01:05:04;;;;;;;;;;;;;;;23.02;44.04;96142.53;5042472;28;20049;-72
2022/08/05 01:07:30;;;;;;;;;;;;;;;22.99;44.63;96148.47;5048867;28;20433;-73
2022/08/05 01:09:56;;;;;;;;;;;;;;;22.94;45.03;96153.94;5038995;28;19957;-73
2022/08/05 01:12:23;;;;;;;;;;;;;;;22.89;45.44;96168.22;5043094;28;20021;-72
2022/08/05 01:14:55;;;;;;;;;;;;;;;22.84;46.44;96171.00;5044110;28;19974;-73
2022/08/05 01:17:21;;;;;;;;;;;;;;;22.80;45.75;96175.38;5042958;28;19963;-72
2022/08/05 01:20:06;;;;;;;;;;;;;;;22.80;45.10;96154.78;5043317;28;19950;-73
2022/08/05 01:22:43;;;;;;;;;;;;;;;22.85;44.07;96159.22;5047262;28;19959;-72
2022/08/05 01:25:21;;;;;;;;;;;;;;;22.85;43.36;96169.94;5037306;28;20438;-72
2022/08/05 01:28:10;;;;;;;;;;;;;;;22.85;43.54;96162.69;5041753;28;20326;-72
2022/08/05 01:30:38;;;;;;;;;;;;;;;22.85;43.13;96165.38;4995137;28;19971;-72
2022/08/05 01:33:06;;;;;;;;;;;;;;;22.92;42.62;96153.47;5044776;28;19964;-72
2022/08/05 01:35:33;;;;;;;;;;;;;;;22.99;42.28;96154.59;5055814;28;20351;-72
2022/08/05 01:38:00;;;;;;;;;;;;;;;23.06;42.82;96157.66;5052297;28;19968;-72
2022/08/05 01:40:28;;;;;;;;;;;;;;;23.11;42.74;96156.75;5054684;28;19961;-72
2022/08/05 01:42:55;;;;;;;;;;;;;;;23.14;42.39;96171.41;5043785;28;19954;-72
2022/08/05 01:45:22;;;;;;;;;;;;;;;23.16;42.40;96166.53;5033452;28;19954;-72
2022/08/05 01:47:48;;;;;;;;;;;;;;;23.19;42.44;96168.59;5042740;28;19962;-71
2022/08/05 01:50:21;;;;;;;;;;;;;;;23.20;42.76;96164.81;5041891;28;19965;-72
2022/08/05 01:52:47;;;;;;;;;;;;;;;23.21;43.13;96172.56;5041999;28;19958;-72
2022/08/05 01:55:15;;;;;;;;;;;;;;;23.22;43.64;96187.50;5048288;28;19975;-72
2022/08/05 01:57:44;;;;;;;;;;;;;;;23.20;44.58;96195.03;5041849;28;20290;-72
2022/08/05 02:00:10;;;;;;;;;;;;;;;23.17;44.08;96192.19;5040772;28;19970;-72
2022/08/05 02:02:38;;;;;;;;;;;;;;;23.12;43.80;96193.13;5046027;28;20398;-72
2022/08/05 02:05:06;;;;;;;;;;;;;;;23.04;43.81;96194.63;5041892;28;19964;-72
2022/08/05 02:07:32;;;;;;;;;;;;;;;22.99;44.21;96204.63;5042328;28;20334;-72
2022/08/05 02:09:58;;;;;;;;;;;;;;;22.91;44.36;96208.81;5041761;28;20304;-71
2022/08/05 02:12:29;;;;;;;;;;;;;;;22.84;44.64;96222.59;5056279;28;19958;-71
2022/08/05 02:15:07;;;;;;;;;;;;;;;22.77;44.87;96224.13;5042353;28;19962;-71
2022/08/05 02:18:12;;;;;;;;;;;;;;;22.71;45.26;96220.75;5044719;28;19980;-71
2022/08/05 02:20:57;;;;;;;;;;;;;;;22.63;45.52;96222.25;4990182;28;20439;-72
2022/08/05 02:23:27;;;;;;;;;;;;;;;22.59;45.67;96221.28;4973344;28;19961;-72
2022/08/05 02:25:54;;;;;;;;;;;;;;;22.54;45.69;96228.63;5026668;28;20024;-71
2022/08/05 02:28:23;;;;;;;;;;;;;;;22.49;46.17;96232.19;5048172;28;19991;-72
2022/08/05 02:30:53;;;;;;;;;;;;;;;22.43;46.06;96234.19;5051670;28;19966;-71
2022/08/05 02:33:21;;;;;;;;;;;;;;;22.39;46.55;96246.56;5036335;28;19964;-71
2022/08/05 02:35:49;;;;;;;;;;;;;;;22.36;47.12;96252.47;5048856;28;19968;-71
2022/08/05 02:38:16;;;;;;;;;;;;;;;22.32;47.30;96251.50;5046645;28;19971;-72
2022/08/05 02:40:42;;;;;;;;;;;;;;;22.27;47.06;96254.28;5041435;28;19969;-72
2022/08/05 02:43:10;;;;;;;;;;;;;;;22.22;47.39;96262.38;5045923;28;19963;-72
2022/08/05 02:45:37;;;;;;;;;;;;;;;22.19;48.01;96254.94;5057877;28;19960;-72
2022/08/05 02:48:03;;;;;;;;;;;;;;;22.14;47.66;96260.38;5047293;28;19964;-72
2022/08/05 02:50:30;;;;;;;;;;;;;;;22.10;48.04;96262.84;5048665;28;19964;-72
2022/08/05 02:52:56;;;;;;;;;;;;;;;22.08;48.26;96273.03;5043813;28;19961;-72
2022/08/05 02:55:23;;;;;;;;;;;;;;;22.06;48.49;96272.53;5043745;28;19956;-72
2022/08/05 02:57:49;;;;;;;;;;;;;;;22.03;48.57;96278.50;5045387;28;20320;-71
2022/08/05 03:00:15;;;;;;;;;;;;;;;22.00;49.10;96276.38;5049352;28;20335;-73
2022/08/05 03:02:43;;;;;;;;;;;;;;;21.98;48.47;96268.66;5023897;28;19948;-72
2022/08/05 03:05:10;;;;;;;;;;;;;;;21.96;48.67;96267.38;5042272;28;19960;-72
2022/08/05 03:07:38;;;;;;;;;;;;;;;21.92;48.91;96280.53;5051269;28;20335;-71
2022/08/05 03:10:04;;;;;;;;;;;;;;;21.88;48.71;96280.34;5043592;28;19967;-71
2022/08/05 03:12:34;;;;;;;;;;;;;;;21.85;48.77;96280.91;5040060;28;20336;-72
2022/08/05 03:15:00;;;;;;;;;;;;;;;21.85;49.01;96288.13;5046729;28;19951;-71
2022/08/05 03:17:27;;;;;;;;;;;;;;;21.79;48.98;96282.09;5047874;28;19977;-72
2022/08/05 03:19:53;;;;;;;;;;;;;;;21.77;49.19;96280.81;5048665;28;19955;-71
2022/08/05 03:22:19;;;;;;;;;;;;;;;21.72;49.29;96278.25;5047029;28;20005;-71
2022/08/05 03:24:47;;;;;;;;;;;;;;;21.66;49.61;96277.53;5043051;28;19955;-71
2022/08/05 03:27:13;;;;;;;;;;;;;;;21.63;49.47;96284.25;5044642;28;19961;-72
2022/08/05 03:29:40;;;;;;;;;;;;;;;21.58;49.15;96275.53;5046541;28;20005;-71
2022/08/05 03:32:09;;;;;;;;;;;;;;;21.54;49.42;96264.63;5049976;28;19962;-71
2022/08/05 03:34:36;;;;;;;;;;;;;;;21.52;49.68;96258.78;5039994;28;19953;-72
2022/08/05 03:37:03;;;;;;;;;;;;;;;21.48;49.72;96273.81;5042270;28;19981;-72
2022/08/05 03:39:29;;;;;;;;;;;;;;;21.44;49.93;96272.81;5045007;28;19971;-72
2022/08/05 03:41:55;;;;;;;;;;;;;;;21.39;49.80;96279.00;5045318;28;20346;-71
2022/08/05 03:44:21;;;;;;;;;;;;;;;21.35;49.79;96267.31;5043884;28;19959;-72
2022/08/05 03:46:47;;;;;;;;;;;;;;;21.34;49.99;96272.97;5047672;28;20017;-71
2022/08/05 03:49:13;;;;;;;;;;;;;;;21.33;50.08;96282.03;5046000;28;19956;-72
2022/08/05 03:51:41;;;;;;;;;;;;;;;21.29;50.30;96293.28;5045960;28;19987;-72
2022/08/05 03:54:09;;;;;;;;;;;;;;;21.28;50.33;96297.03;5038887;28;19957;-73
2022/08/05 03:56:38;;;;;;;;;;;;;;;21.29;50.62;96301.28;5048228;28;20326;-71
2022/08/05 03:59:18;;;;;;;;;;;;;;;21.28;49.88;96293.56;5045860;28;19973;-72
2022/08/05 04:01:45;;;;;;;;;;;;;;;21.27;50.44;96297.31;5045508;28;19989;-72
2022/08/05 04:04:12;;;;;;;;;;;;;;;21.28;50.68;96285.56;5043012;28;19953;-72
2022/08/05 04:06:38;;;;;;;;;;;;;;;21.25;50.95;96273.63;5043809;28;19954;-72
2022/08/05 04:09:05;;;;;;;;;;;;;;;21.24;51.37;96272.00;5049311;28;19967;-72
2022/08/05 04:11:31;;;;;;;;;;;;;;;21.27;51.21;96275.97;5046414;28;19961;-72
2022/08/05 04:13:58;;;;;;;;;;;;;;;21.26;51.02;96264.53;5038454;28;19963;-73
2022/08/05 04:16:24;;;;;;;;;;;;;;;21.26;51.15;96266.41;5050837;28;19967;-72
2022/08/05 04:18:50;;;;;;;;;;;;;;;21.26;50.93;96267.19;5043831;28;19956;-72
2022/08/05 04:21:16;;;;;;;;;;;;;;;21.25;51.47;96278.94;5041812;28;19954;-72
2022/08/05 04:23:42;;;;;;;;;;;;;;;21.27;51.42;96297.31;5045435;28;19962;-72
2022/08/05 04:26:08;;;;;;;;;;;;;;;21.25;51.39;96302.13;5046047;28;19965;-72
2022/08/05 04:28:34;;;;;;;;;;;;;;;21.24;51.44;96313.91;5042493;28;19982;-72
2022/08/05 04:31:00;;;;;;;;;;;;;;;21.24;51.64;96330.69;5044351;28;20476;-72
2022/08/05 04:33:27;;;;;;;;;;;;;;;21.25;52.33;96344.81;5039186;28;19967;-72
2022/08/05 04:35:52;;;;;;;;;;;;;;;21.26;51.85;96341.06;5048673;28;19969;-72
2022/08/05 04:38:18;;;;;;;;;;;;;;;21.24;51.14;96335.25;5043628;28;20008;-72
2022/08/05 04:40:44;;;;;;;;;;;;;;;21.21;51.39;96344.63;5040312;28;20013;-72
2022/08/05 04:43:10;;;;;;;;;;;;;;;21.21;51.80;96346.50;5043518;28;19988;-72
2022/08/05 04:45:36;;;;;;;;;;;;;;;21.22;52.07;96364.84;5048853;28;19968;-72
2022/08/05 04:48:03;;;;;;;;;;;;;;;21.26;52.09;96383.75;5041814;28;19955;-72
2022/08/05 04:50:29;;;;;;;;;;;;;;;21.31;52.51;96404.22;5039311;28;20320;-73
2022/08/05 04:52:55;;;;;;;;;;;;;;;21.37;51.94;96422.53;5044721;28;19961;-72
2022/08/05 04:55:21;;;;;;;;;;;;;;;21.46;51.86;96434.19;5049835;28;20013;-73
2022/08/05 04:57:47;;;;;;;;;;;;;;;21.58;51.81;96443.63;5044154;28;20012;-72
2022/08/05 05:00:13;;;;;;;;;;;;;;;21.74;50.34;96437.00;5041343;28;19970;-72
2022/08/05 05:02:39;;;;;;;;;;;;;;;21.87;52.42;96449.59;5044553;28;20335;-72
2022/08/05 05:05:05;;;;;;;;;;;;;;;22.02;53.15;96437.91;5045918;28;19968;-72
2022/08/05 05:07:31;;;;;;;;;;;;;;;22.18;53.96;96441.13;5042703;28;20430;-72
2022/08/05 05:09:57;;;;;;;;;;;;;;;22.32;53.00;96443.84;5047912;28;19992;-73
2022/08/05 05:12:23;;;;;;;;;;;;;;;22.50;53.27;96455.56;5042600;28;19997;-71
2022/08/05 05:14:49;;;;;;;;;;;;;;;22.66;52.56;96446.19;5041119;28;19966;-72
2022/08/05 05:17:15;;;;;;;;;;;;;;;22.86;51.92;96444.22;5039924;28;19982;-72
2022/08/05 05:19:42;;;;;;;;;;;;;;;23.02;53.90;96450.91;5042379;28;19959;-72
2022/08/05 05:22:08;;;;;;;;;;;;;;;23.12;52.67;96447.25;5042469;28;19965;-72
2022/08/05 05:24:34;;;;;;;;;;;;;;;23.25;51.80;96434.94;5045620;28;20425;-72
2022/08/05 05:26:59;;;;;;;;;;;;;;;23.38;52.48;96446.72;5041970;28;19999;-72
2022/08/05 05:29:25;;;;;;;;;;;;;;;23.44;50.72;96435.59;5041204;28;19982;-72
2022/08/05 05:31:52;;;;;;;;;;;;;;;23.67;51.90;96446.34;5042609;28;19960;-72
2022/08/05 05:34:18;;;;;;;;;;;;;;;23.96;51.49;96445.97;5046318;28;19964;-73
2022/08/05 05:36:44;;;;;;;;;;;;;;;24.25;51.37;96444.72;5041311;28;20373;-72
2022/08/05 05:39:10;;;;;;;;;;;;;;;24.55;50.48;96445.09;5041800;28;19957;-72
2022/08/05 05:41:36;;;;;;;;;;;;;;;24.86;49.24;96448.56;5046020;28;19997;-72
2022/08/05 05:44:02;;;;;;;;;;;;;;;25.14;49.19;96448.34;5044071;28;20490;-72
2022/08/05 05:46:28;;;;;;;;;;;;;;;25.33;48.64;96450.78;5042939;28;19982;-72
2022/08/05 05:48:53;;;;;;;;;;;;;;;25.49;48.65;96443.03;5043984;28;20059;-72
2022/08/05 05:51:23;;;;;;;;;;;;;;;25.57;49.20;96442.25;5041010;28;20690;-72
2022/08/05 05:53:50;;;;;;;;;;;;;;;25.68;47.71;96426.63;5046847;28;20339;-71
2022/08/05 05:56:15;;;;;;;;;;;;;;;25.88;48.12;96435.97;5050939;28;19973;-72
2022/08/05 05:58:41;;;;;;;;;;;;;;;26.03;48.39;96451.63;5047954;28;20053;-72
2022/08/05 06:01:07;;;;;;;;;;;;;;;26.07;48.19;96457.94;5043002;28;20374;-73
2022/08/05 06:03:34;;;;;;;;;;;;;;;26.04;46.53;96447.03;5051205;28;19987;-72
2022/08/05 06:06:00;;;;;;;;;;;;;;;25.95;47.90;96447.03;5047849;28;19962;-72
2022/08/05 06:08:26;;;;;;;;;;;;;;;25.83;47.71;96458.41;5055362;28;20365;-73
2022/08/05 06:10:52;;;;;;;;;;;;;;;25.57;48.95;96476.38;5047442;28;20304;-73
2022/08/05 06:13:18;;;;;;;;;;;;;;;25.56;49.40;96478.28;5050613;28;19998;-72
2022/08/05 06:15:44;;;;;;;;;;;;;;;25.83;49.05;96479.91;5052360;28;19997;-73
2022/08/05 06:18:10;;;;;;;;;;;;;;;26.08;48.82;96469.47;5042905;28;20009;-73
2022/08/05 06:20:35;;;;;;;;;;;;;;;26.42;47.89;96452.53;5043843;28;19966;-73
2022/08/05 06:23:03;;;;;;;;;;;;;;;26.76;47.30;96445.47;5048346;28;20370;-73
2022/08/05 06:25:29;;;;;;;;;;;;;;;27.14;47.02;96432.00;5046259;28;19965;-72
2022/08/05 06:27:55;;;;;;;;;;;;;;;27.51;45.28;96440.34;5050344;28;19981;-73
2022/08/05 06:30:21;;;;;;;;;;;;;;;27.82;45.09;96443.75;5045439;28;19966;-72
2022/08/05 06:32:47;;;;;;;;;;;;;;;28.09;44.90;96443.22;5042694;28;19962;-72
2022/08/05 06:35:13;;;;;;;;;;;;;;;28.35;44.02;96434.13;5047013;28;20430;-72
2022/08/05 06:37:39;;;;;;;;;;;;;;;28.52;43.90;96441.25;5047166;28;20015;-72
2022/08/05 06:40:05;;;;;;;;;;;;;;;28.68;43.20;96442.16;5047651;28;20315;-72
2022/08/05 06:42:31;;;;;;;;;;;;;;;28.78;42.44;96449.03;5045287;28;19965;-72
2022/08/05 06:44:57;;;;;;;;;;;;;;;28.87;42.63;96457.84;5041805;28;19993;-72
2022/08/05 06:47:22;;;;;;;;;;;;;;;28.95;42.60;96456.94;5045185;28;19958;-73
2022/08/05 06:49:48;;;;;;;;;;;;;;;28.98;42.09;96452.78;5047025;28;19956;-72
2022/08/05 06:52:14;;;;;;;;;;;;;;;28.97;41.42;96447.72;5052418;28;19958;-73
2022/08/05 06:54:40;;;;;;;;;;;;;;;28.90;41.52;96443.66;5040720;28;19957;-73
2022/08/05 06:57:06;;;;;;;;;;;;;;;28.90;41.91;96448.28;5046031;28;20484;-72
2022/08/05 06:59:32;;;;;;;;;;;;;;;28.91;41.39;96445.22;5045842;28;20376;-72
2022/08/05 07:01:58;;;;;;;;;;;;;;;28.98;41.73;96446.56;5048184;28;19960;-72
2022/08/05 07:04:24;;;;;;;;;;;;;;;28.90;40.53;96446.38;5044069;28;19990;-72
2022/08/05 07:06:49;;;;;;;;;;;;;;;28.94;40.75;96468.88;5039004;28;20329;-72
2022/08/05 07:09:15;;;;;;;;;;;;;;;28.75;40.35;96465.94;5048532;28;20033;-72
2022/08/05 07:11:41;;;;;;;;;;;;;;;28.66;40.75;96473.31;5048498;28;20433;-72
2022/08/05 07:16:58;;;;;;;;;;;;;;;28.52;40.58;96473.63;5025562;28;20435;-71
2022/08/05 07:19:24;;;;;;;;;;;;;;;28.49;41.19;96480.47;5045028;28;19962;-71
2022/08/05 07:21:50;;;;;;;;;;;;;;;28.39;40.71;96475.50;5046537;28;19958;-71
2022/08/05 07:24:16;;;;;;;;;;;;;;;28.33;39.69;96474.91;5062319;28;20035;-72
2022/08/05 07:26:43;;;;;;;;;;;;;;;28.23;39.97;96477.22;5041621;28;19966;-72
2022/08/05 07:29:08;;;;;;;;;;;;;;;28.23;40.06;96486.09;5044900;28;19983;-72
2022/08/05 07:31:35;;;;;;;;;;;;;;;28.30;39.95;96489.03;5045662;28;20413;-72
2022/08/05 07:34:01;;;;;;;;;;;;;;;28.31;39.15;96476.34;5044796;28;19958;-72
2022/08/05 07:36:28;;;;;;;;;;;;;;;28.36;39.69;96484.22;5047991;28;19979;-72
2022/08/05 07:38:54;;;;;;;;;;;;;;;28.43;38.77;96479.09;5041070;28;19953;-72
2022/08/05 07:41:22;;;;;;;;;;;;;;;28.59;38.99;96473.09;5047488;28;19959;-71
2022/08/05 07:43:49;;;;;;;;;;;;;;;28.71;38.14;96478.50;5035438;28;19957;-72
2022/08/05 07:46:15;;;;;;;;;;;;;;;28.75;38.06;96484.81;5045971;28;19957;-72
2022/08/05 07:48:41;;;;;;;;;;;;;;;28.77;37.95;96479.06;5038417;28;20023;-72
2022/08/05 07:51:07;;;;;;;;;;;;;;;28.60;37.60;96469.25;5042691;28;19966;-72
2022/08/05 07:53:35;;;;;;;;;;;;;;;28.59;38.41;96475.78;5058964;28;19955;-72
2022/08/05 07:56:02;;;;;;;;;;;;;;;28.69;37.53;96481.53;5045260;28;20338;-72
2022/08/05 07:58:27;;;;;;;;;;;;;;;28.74;36.40;96472.44;5033445;28;19988;-72
2022/08/05 08:00:53;;;;;;;;;;;;;;;28.67;36.43;96464.91;5044573;28;19958;-73
2022/08/05 08:03:19;;;;;;;;;;;;;;;28.79;37.39;96483.03;5037283;28;19967;-72
2022/08/05 08:05:45;;;;;;;;;;;;;;;28.98;37.30;96482.50;5043665;28;19964;-72
2022/08/05 08:08:12;;;;;;;;;;;;;;;29.17;37.37;96484.66;5045725;28;20412;-72
2022/08/05 08:10:38;;;;;;;;;;;;;;;29.27;37.45;96475.28;5044544;28;19957;-72
2022/08/05 08:13:04;;;;;;;;;;;;;;;29.22;36.15;96475.53;5037402;28;19965;-73
2022/08/05 08:15:30;;;;;;;;;;;;;;;29.15;35.54;96476.09;5041257;28;20431;-72
2022/08/05 08:17:56;;;;;;;;;;;;;;;29.08;36.60;96481.25;5053715;28;19980;-72
2022/08/05 08:20:23;;;;;;;;;;;;;;;29.16;36.30;96495.78;5043780;28;19968;-72
2022/08/05 08:22:52;;;;;;;;;;;;;;;29.28;36.61;96493.09;5044707;28;19960;-72
2022/08/05 08:25:18;;;;;;;;;;;;;;;29.43;36.53;96491.63;5043746;28;19981;-72
2022/08/05 08:27:44;;;;;;;;;;;;;;;29.52;36.27;96478.75;5050174;28;19973;-72
2022/08/05 08:30:10;;;;;;;;;;;;;;;29.54;34.69;96468.41;5043899;28;19975;-72
2022/08/05 08:32:36;;;;;;;;;;;;;;;29.46;35.24;96463.91;5043894;28;19969;-72
2022/08/05 08:35:03;;;;;;;;;;;;;;;29.38;36.80;96472.91;5039971;28;19992;-72
2022/08/05 08:37:29;;;;;;;;;;;;;;;29.41;36.09;96469.56;5043529;28;19971;-72
2022/08/05 08:39:55;;;;;;;;;;;;;;;29.47;36.62;96479.00;5048787;28;19958;-72
2022/08/05 08:42:21;;;;;;;;;;;;;;;29.51;36.13;96467.19;5040222;28;20450;-73
2022/08/05 08:44:48;;;;;;;;;;;;;;;29.61;35.94;96454.31;5041865;28;19964;-73
2022/08/05 08:47:14;;;;;;;;;;;;;;;29.59;36.38;96451.16;5050609;28;19959;-74
2022/08/05 08:49:43;;;;;;;;;;;;;;;29.27;35.35;96443.69;5044006;28;19962;-73
2022/08/05 08:52:16;;;;;;;;;;;;;;;28.92;36.10;96441.41;5040707;28;19953;-73
2022/08/05 08:54:42;;;;;;;;;;;;;;;28.69;37.04;96451.84;5043690;28;19956;-73
2022/08/05 08:57:08;;;;;;;;;;;;;;;28.69;37.40;96438.34;5047554;28;20365;-73
2022/08/05 08:59:35;;;;;;;;;;;;;;;28.92;37.21;96424.44;5046955;28;19988;-72
2022/08/05 09:02:05;;;;;;;;;;;;;;;29.17;36.98;96425.25;5036920;28;19959;-72
2022/08/05 09:04:36;;;;;;;;;;;;;;;29.35;36.43;96423.06;5041729;28;19957;-72
2022/08/05 09:07:03;;;;;;;;;;;;;;;29.47;36.26;96422.28;5049403;28;20355;-72
2022/08/05 09:09:30;;;;;;;;;;;;;;;29.48;35.38;96426.53;5040914;28;19967;-73
2022/08/05 09:11:57;;;;;;;;;;;;;;;29.49;34.93;96420.78;5040262;28;19961;-72
2022/08/05 09:14:23;;;;;;;;;;;;;;;29.41;35.23;96429.81;5049564;28;20326;-72
2022/08/05 09:16:49;;;;;;;;;;;;;;;29.40;35.73;96424.75;5042023;28;19973;-72
2022/08/05 09:19:14;;;;;;;;;;;;;;;29.47;35.72;96430.38;5039524;28;19964;-73
2022/08/05 09:21:40;;;;;;;;;;;;;;;29.65;36.32;96431.69;5046494;28;19964;-72
2022/08/05 09:24:07;;;;;;;;;;;;;;;29.81;35.53;96423.66;5049283;28;20008;-72
2022/08/05 09:26:35;;;;;;;;;;;;;;;29.89;34.70;96416.53;5041690;28;19948;-72
2022/08/05 09:29:03;;;;;;;;;;;;;;;29.98;35.64;96417.16;5047597;28;19982;-73
2022/08/05 09:31:29;;;;;;;;;;;;;;;30.02;35.15;96415.34;5048317;28;20342;-72
2022/08/05 09:34:00;;;;;;;;;;;;;;;30.06;34.59;96408.13;5047132;28;19955;-73
2022/08/05 09:36:37;;;;;;;;;;;;;;;30.04;34.34;96402.28;5047567;28;19962;-72
2022/08/05 09:39:05;;;;;;;;;;;;;;;30.08;34.60;96400.44;5046242;28;19971;-72
2022/08/05 09:41:31;;;;;;;;;;;;;;;30.11;35.22;96402.47;5042123;28;19966;-73
2022/08/05 09:43:57;;;;;;;;;;;;;;;30.12;34.58;96398.63;5052377;28;19964;-73
2022/08/05 09:46:30;;;;;;;;;;;;;;;30.08;34.94;96399.66;5049022;28;19961;-74
2022/08/05 09:48:57;;;;;;;;;;;;;;;30.06;34.61;96400.00;5031334;28;20415;-73
2022/08/05 09:51:37;;;;;;;;;;;;;;;30.13;35.36;96411.03;5043570;28;19955;-73
2022/08/05 09:54:06;;;;;;;;;;;;;;;30.27;34.99;96399.78;5042277;28;19960;-73
2022/08/05 09:56:32;;;;;;;;;;;;;;;30.45;34.98;96400.28;5048004;28;19962;-73
2022/08/05 09:59:00;;;;;;;;;;;;;;;30.42;33.51;96400.97;5049008;28;19987;-73
2022/08/05 10:01:27;;;;;;;;;;;;;;;30.51;34.41;96403.50;5043071;28;19962;-73
2022/08/05 10:03:58;;;;;;;;;;;;;;;30.68;33.83;96400.47;5051101;28;19960;-73
2022/08/05 10:06:26;;;;;;;;;;;;;;;30.83;33.38;96401.59;5046299;28;19962;-73
2022/08/05 10:08:52;;;;;;;;;;;;;;;30.99;33.84;96406.22;5050894;28;19956;-73
2022/08/05 10:11:18;;;;;;;;;;;;;;;31.11;33.55;96400.69;5044848;28;19968;-73
2022/08/05 10:13:44;;;;;;;;;;;;;;;31.17;33.35;96393.88;5043676;28;20422;-73
2022/08/05 10:16:29;;;;;;;;;;;;;;;31.05;32.49;96394.75;5052390;28;20478;-74
2022/08/05 10:18:55;;;;;;;;;;;;;;;30.98;33.95;96393.81;5045978;28;19975;-73
2022/08/05 10:21:21;;;;;;;;;;;;;;;30.91;33.10;96389.81;5047499;28;19958;-74
2022/08/05 10:23:47;;;;;;;;;;;;;;;30.82;33.21;96385.69;5046984;28;20020;-73
2022/08/05 10:26:13;;;;;;;;;;;;;;;30.85;32.90;96396.59;5041591;28;19974;-73
2022/08/05 10:28:40;;;;;;;;;;;;;;;30.84;33.05;96392.31;5045198;28;20626;-73
2022/08/05 10:31:06;;;;;;;;;;;;;;;30.85;33.28;96390.38;5045124;28;19970;-73
2022/08/05 10:33:33;;;;;;;;;;;;;;;30.87;33.53;96386.25;5045900;28;19970;-75
2022/08/05 10:36:00;;;;;;;;;;;;;;;30.89;32.40;96385.88;5051677;28;19968;-73
2022/08/05 10:38:27;;;;;;;;;;;;;;;30.80;32.29;96386.03;5045264;28;19974;-73
2022/08/05 10:40:53;;;;;;;;;;;;;;;30.79;33.29;96394.50;5042603;28;19962;-73
2022/08/05 10:43:31;;;;;;;;;;;;;;;30.97;32.82;96387.59;5049992;28;20441;-73
2022/08/05 10:46:02;;;;;;;;;;;;;;;31.12;32.51;96388.72;5046910;28;19955;-73
2022/08/05 10:48:33;;;;;;;;;;;;;;;31.28;32.27;96377.84;5046314;28;19953;-73
2022/08/05 10:51:09;;;;;;;;;;;;;;;31.29;32.62;96384.81;5049042;28;19965;-74
2022/08/05 10:53:54;;;;;;;;;;;;;;;31.21;32.90;96383.13;5040697;28;19950;-73
2022/08/05 10:56:21;;;;;;;;;;;;;;;31.14;32.98;96391.84;5036368;28;19962;-73
2022/08/05 10:59:03;;;;;;;;;;;;;;;31.19;32.91;96377.28;5042766;28;19977;-73
2022/08/05 11:01:36;;;;;;;;;;;;;;;31.30;32.83;96387.19;5039972;28;20329;-73
2022/08/05 11:04:02;;;;;;;;;;;;;;;31.22;32.46;96390.88;5048824;28;19961;-73
2022/08/05 11:06:28;;;;;;;;;;;;;;;31.19;32.68;96382.69;5044561;28;19970;-73
2022/08/05 11:09:11;;;;;;;;;;;;;;;31.25;32.60;96392.09;5063952;28;20316;-73
2022/08/05 11:11:37;;;;;;;;;;;;;;;31.46;32.25;96387.16;5035809;28;19955;-73
2022/08/05 11:14:03;;;;;;;;;;;;;;;31.65;32.71;96386.41;5045226;28;19973;-73
2022/08/05 11:16:30;;;;;;;;;;;;;;;31.83;32.09;96385.94;5042832;28;19952;-73
2022/08/05 11:19:14;;;;;;;;;;;;;;;32.04;31.18;96380.94;5040797;28;19974;-72
2022/08/05 11:21:40;;;;;;;;;;;;;;;32.07;31.94;96399.25;5035948;28;19961;-74
2022/08/05 11:24:07;;;;;;;;;;;;;;;32.07;30.88;96401.19;5045661;28;20001;-73
2022/08/05 11:26:33;;;;;;;;;;;;;;;32.05;30.58;96401.53;5041558;28;19985;-72
2022/08/05 11:29:03;;;;;;;;;;;;;;;32.12;31.49;96407.06;5042649;28;20459;-72
2022/08/05 11:31:30;;;;;;;;;;;;;;;32.26;30.82;96397.66;5044080;28;20348;-72
2022/08/05 11:34:01;;;;;;;;;;;;;;;32.52;31.30;96405.06;5050118;28;20329;-73
2022/08/05 11:36:45;;;;;;;;;;;;;;;32.76;30.70;96399.28;5046904;28;19960;-77
2022/08/05 11:39:12;;;;;;;;;;;;;;;32.93;29.22;96395.28;5034505;28;19976;-73
2022/08/05 11:41:40;;;;;;;;;;;;;;;32.73;29.23;96396.50;5042294;28;19973;-73
2022/08/05 11:44:11;;;;;;;;;;;;;;;32.55;29.46;96397.00;5040481;28;19957;-73
2022/08/05 11:46:39;;;;;;;;;;;;;;;32.56;29.96;96397.78;5050625;28;19966;-73
2022/08/05 11:49:06;;;;;;;;;;;;;;;32.71;30.51;96396.88;5041284;28;19967;-73
2022/08/05 11:51:31;;;;;;;;;;;;;;;32.97;30.41;96395.34;5058131;28;20414;-73
2022/08/05 11:54:00;;;;;;;;;;;;;;;33.27;29.52;96394.63;5044055;28;19976;-73
2022/08/05 11:56:41;;;;;;;;;;;;;;;33.49;29.49;96379.38;5046105;28;19961;-73
2022/08/05 11:59:11;;;;;;;;;;;;;;;33.74;28.23;96374.25;5043296;28;20361;-73
2022/08/05 12:01:50;;;;;;;;;;;;;;;33.90;28.76;96372.13;5048686;28;19967;-73
2022/08/05 12:04:16;;;;;;;;;;;;;;;33.85;28.35;96377.09;5027659;28;19967;-73
2022/08/05 12:06:42;;;;;;;;;;;;;;;33.64;28.20;96375.72;5045018;28;20015;-73
2022/08/05 12:09:08;;;;;;;;;;;;;;;33.45;28.45;96381.25;5044652;28;19988;-73
2022/08/05 12:11:34;;;;;;;;;;;;;;;33.25;27.34;96370.53;5047746;28;19995;-73
2022/08/05 12:14:01;;;;;;;;;;;;;;;33.09;27.84;96367.19;5044435;28;20447;-73
2022/08/05 12:16:28;;;;;;;;;;;;;;;32.71;28.42;96367.00;5043613;28;19966;-74
2022/08/05 12:18:54;;;;;;;;;;;;;;;32.74;29.93;96377.16;5043997;28;20494;-73
2022/08/05 12:21:20;;;;;;;;;;;;;;;32.86;28.81;96364.50;5040750;28;20061;-74
2022/08/05 12:24:06;;;;;;;;;;;;;;;32.84;28.74;96366.81;5047031;28;20028;-73
2022/08/05 12:26:39;;;;;;;;;;;;;;;32.61;28.52;96364.91;5045875;28;19963;-73
2022/08/05 12:29:07;;;;;;;;;;;;;;;32.42;29.41;96365.72;5045108;28;20008;-73
2022/08/05 12:31:33;;;;;;;;;;;;;;;32.48;29.82;96360.78;5034460;28;19962;-73
2022/08/05 12:34:04;;;;;;;;;;;;;;;32.64;31.00;96366.13;5049795;28;19991;-73
2022/08/05 12:36:31;;;;;;;;;;;;;;;32.85;29.57;96360.22;5042410;28;19957;-73
2022/08/05 12:38:57;;;;;;;;;;;;;;;32.88;28.89;96354.06;5041682;28;19976;-73
2022/08/05 12:41:28;;;;;;;;;;;;;;;32.87;28.29;96349.78;5046958;28;19954;-73
2022/08/05 12:43:59;;;;;;;;;;;;;;;33.01;29.71;96349.19;5044660;28;19957;-73
2022/08/05 12:46:26;;;;;;;;;;;;;;;32.97;28.47;96343.72;5044110;28;20315;-73
2022/08/05 12:49:16;;;;;;;;;;;;;;;32.91;29.08;96340.53;5040631;28;19959;-73
2022/08/05 12:51:42;;;;;;;;;;;;;;;32.93;29.46;96349.09;5032964;28;19958;-72
2022/08/05 12:54:08;;;;;;;;;;;;;;;33.21;29.22;96342.53;5045583;28;20017;-74